createdAt,value
2018-06-01T00:01:32.373Z,44.03
2018-06-01T00:04:00.107Z,42.27
2018-06-01T00:06:28.396Z,41.33
2018-06-01T00:08:56.868Z,39.33
2018-06-01T00:11:25.726Z,35.50
2018-06-01T00:13:53.461Z,36.97
2018-06-01T00:16:21.194Z,35.10
2018-06-01T00:18:48.815Z,33.73
2018-06-01T00:21:16.698Z,31.27
2018-06-01T00:23:45.272Z,31.23
2018-06-01T00:26:13.911Z,33.80
2018-06-01T00:28:42.294Z,33.00
2018-06-01T00:31:10.277Z,34.07
2018-06-01T00:33:38.002Z,24.97
2018-06-01T00:36:07.832Z,25.13
2018-06-01T00:38:35.447Z,24.77
2018-06-01T00:41:03.213Z,21.90
2018-06-01T00:43:30.995Z,20.03
2018-06-01T00:45:58.611Z,18.07
2018-06-01T00:48:26.378Z,17.35
2018-06-01T00:50:54.081Z,15.53
2018-06-01T00:53:22.655Z,12.50
2018-06-01T00:55:50.490Z,11.07
2018-06-01T00:58:18.436Z,14.30
2018-06-01T01:00:46.736Z,8.70
2018-06-01T01:03:14.583Z,11.20
2018-06-01T01:05:43.203Z,8.70
2018-06-01T01:08:12.222Z,8.70
2018-06-01T01:10:39.992Z,8.10
2018-06-01T01:13:08.648Z,10.45
2018-06-01T01:15:37.205Z,7.63
2018-06-01T01:18:05.755Z,7.70
2018-06-01T01:20:34.293Z,7.00
2018-06-01T01:23:02.717Z,6.63
2018-06-01T01:25:30.461Z,6.90
2018-06-01T01:28:00.351Z,10.00
2018-06-01T01:30:28.587Z,8.13
2018-06-01T01:32:56.928Z,10.53
2018-06-01T01:35:25.496Z,8.10
2018-06-01T01:37:53.751Z,19.20
2018-06-01T01:40:21.552Z,27.37
2018-06-01T01:42:51.014Z,10.30
2018-06-01T01:45:18.825Z,11.30
2018-06-01T01:47:47.450Z,34.67
2018-06-01T01:50:15.146Z,30.03
2018-06-01T01:52:42.912Z,25.40
2018-06-01T01:55:10.650Z,25.57
2018-06-01T01:57:38.317Z,23.73
2018-06-01T02:00:06.932Z,24.07
2018-06-01T02:02:35.436Z,20.55
2018-06-01T02:05:04.382Z,22.63
2018-06-01T02:07:32.747Z,20.17
2018-06-01T02:10:00.403Z,19.63
2018-06-01T02:12:28.059Z,18.90
2018-06-01T02:14:55.702Z,21.37
2018-06-01T02:17:23.487Z,19.67
2018-06-01T02:19:51.548Z,22.07
2018-06-01T02:22:19.198Z,20.57
2018-06-01T02:24:47.625Z,19.93
2018-06-01T02:27:16.066Z,19.00
2018-06-01T02:29:43.763Z,19.53
2018-06-01T02:32:11.487Z,17.10
2018-06-01T02:34:39.156Z,19.03
2018-06-01T02:37:06.825Z,20.60
2018-06-01T02:39:34.510Z,19.77
2018-06-01T02:42:02.157Z,19.10
2018-06-01T02:44:29.842Z,21.33
2018-06-01T02:46:57.497Z,18.37
2018-06-01T02:49:25.159Z,18.20
2018-06-01T02:51:52.837Z,19.45
2018-06-01T02:54:20.558Z,18.80
2018-06-01T02:56:48.254Z,17.93
2018-06-01T02:59:19.826Z,19.73
2018-06-01T03:01:48.883Z,17.47
2018-06-01T03:04:19.602Z,17.97
2018-06-01T03:07:05.441Z,19.23
2018-06-01T03:09:33.503Z,18.00
2018-06-01T03:12:01.122Z,17.93
2018-06-01T03:14:28.841Z,19.40
2018-06-01T03:16:56.549Z,19.40
2018-06-01T03:19:28.123Z,17.75
2018-06-01T03:21:57.642Z,17.83
2018-06-01T03:24:26.948Z,16.67
2018-06-01T03:26:54.582Z,18.40
2018-06-01T03:29:22.239Z,18.30
2018-06-01T03:31:49.899Z,18.40
2018-06-01T03:34:17.592Z,16.83
2018-06-01T03:36:46.101Z,20.45
2018-06-01T03:39:13.796Z,19.43
2018-06-01T03:41:42.035Z,20.50
2018-06-01T03:44:09.663Z,16.43
2018-06-01T03:46:37.294Z,19.87
2018-06-01T03:49:05.028Z,20.60
2018-06-01T03:51:32.763Z,20.80
2018-06-01T03:54:00.526Z,18.50
2018-06-01T03:56:29.020Z,20.87
2018-06-01T03:58:57.079Z,24.07
2018-06-01T04:01:24.828Z,23.27
2018-06-01T04:03:52.547Z,22.80
2018-06-01T04:06:20.390Z,25.63
2018-06-01T04:08:48.134Z,19.65
2018-06-01T04:11:16.715Z,21.50
2018-06-01T04:13:44.373Z,24.10
2018-06-01T04:16:12.052Z,21.53
2018-06-01T04:18:39.880Z,23.35
2018-06-01T04:21:07.711Z,22.67
2018-06-01T04:23:35.412Z,19.77
2018-06-01T04:26:03.221Z,21.20
2018-06-01T04:28:31.694Z,20.80
2018-06-01T04:30:59.487Z,21.93
2018-06-01T04:33:27.947Z,20.13
2018-06-01T04:35:55.588Z,20.35
2018-06-01T04:38:23.261Z,21.00
2018-06-01T04:40:50.960Z,25.43
2018-06-01T04:43:18.659Z,19.63
2018-06-01T04:45:47.163Z,24.37
2018-06-01T04:48:14.826Z,22.90
2018-06-01T04:50:42.602Z,21.30
2018-06-01T04:53:10.453Z,21.03
2018-06-01T04:55:38.325Z,20.37
2018-06-01T04:58:06.842Z,21.90
2018-06-01T05:00:35.392Z,18.93
2018-06-01T05:03:03.107Z,19.80
2018-06-01T05:05:30.932Z,18.90
2018-06-01T05:07:58.608Z,18.60
2018-06-01T05:10:26.309Z,23.65
2018-06-01T05:12:54.020Z,22.27
2018-06-01T05:15:21.746Z,20.30
2018-06-01T05:17:49.493Z,18.20
2018-06-01T05:20:18.269Z,18.23
2018-06-01T05:22:45.960Z,18.13
2018-06-01T05:25:13.654Z,18.00
2018-06-01T05:27:41.577Z,19.80
2018-06-01T05:30:09.561Z,17.57
2018-06-01T05:32:37.363Z,16.67
2018-06-01T05:35:05.067Z,18.95
2018-06-01T05:37:32.810Z,19.37
2018-06-01T05:40:01.204Z,20.40
2018-06-01T05:42:29.277Z,21.00
2018-06-01T05:44:57.118Z,24.50
2018-06-01T05:47:24.881Z,23.70
2018-06-01T05:49:52.615Z,21.10
2018-06-01T05:52:20.302Z,22.13
2018-06-01T05:54:48.237Z,24.40
2018-06-01T05:57:15.982Z,24.20
2018-06-01T05:59:44.411Z,23.87
2018-06-01T06:02:12.131Z,26.05
2018-06-01T06:04:39.901Z,24.40
2018-06-01T06:07:07.649Z,27.33
2018-06-01T06:09:37.285Z,24.93
2018-06-01T06:12:05.009Z,29.70
2018-06-01T06:14:32.709Z,27.60
2018-06-01T06:17:00.499Z,30.10
2018-06-01T06:19:28.533Z,37.70
2018-06-01T06:21:56.656Z,37.33
2018-06-01T06:24:24.371Z,33.93
2018-06-01T06:26:52.221Z,47.60
2018-06-01T06:29:20.537Z,48.70
2018-06-01T06:31:48.411Z,44.67
2018-06-01T06:34:16.172Z,48.17
2018-06-01T06:36:44.025Z,49.80
2018-06-01T06:39:12.551Z,53.83
2018-06-01T06:41:40.651Z,52.27
2018-06-01T06:44:09.200Z,50.63
2018-06-01T06:46:37.023Z,54.43
2018-06-01T06:49:05.124Z,58.00
2018-06-01T06:51:32.801Z,58.23
2018-06-01T06:54:00.510Z,59.90
2018-06-01T06:56:29.158Z,58.40
2018-06-01T06:58:57.039Z,61.15
2018-06-01T07:01:24.690Z,63.63
2018-06-01T07:03:52.424Z,62.93
2018-06-01T07:06:20.769Z,65.75
2018-06-01T07:08:48.320Z,63.40
2018-06-01T07:11:16.689Z,69.37
2018-06-01T07:13:45.001Z,73.80
2018-06-01T07:16:12.605Z,82.33
2018-06-01T07:18:40.172Z,79.43
2018-06-01T07:21:07.724Z,75.10
2018-06-01T07:23:35.269Z,70.10
2018-06-01T07:26:02.834Z,81.15
2018-06-01T07:28:30.396Z,87.67
2018-06-01T07:30:57.965Z,88.05
2018-06-01T07:33:25.675Z,111.05
2018-06-01T07:35:53.910Z,98.40
2018-06-01T07:38:23.293Z,101.43
2018-06-01T07:40:50.834Z,108.03
2018-06-01T07:43:18.399Z,110.33
2018-06-01T07:45:45.991Z,106.50
2018-06-01T07:48:13.739Z,108.60
2018-06-01T07:50:41.266Z,115.70
2018-06-01T07:53:08.910Z,108.50
2018-06-01T07:55:37.205Z,107.30
2018-06-01T07:58:05.642Z,110.53
2018-06-01T08:00:33.220Z,96.50
2018-06-01T08:03:00.781Z,99.70
2018-06-01T08:05:28.334Z,103.90
2018-06-01T08:07:59.215Z,103.05
2018-06-01T08:10:27.530Z,111.90
2018-06-01T08:12:56.157Z,111.40
2018-06-01T08:15:26.450Z,124.10
2018-06-01T08:20:22.214Z,118.05
2018-06-01T08:22:50.660Z,99.25
2018-06-01T08:25:18.220Z,98.15
2018-06-01T08:27:45.784Z,102.85
2018-06-01T08:30:13.329Z,108.40
2018-06-01T08:32:40.916Z,116.23
2018-06-01T08:35:09.235Z,109.57
2018-06-01T08:37:37.618Z,98.70
2018-06-01T08:40:06.808Z,85.40
2018-06-01T08:42:38.926Z,88.57
2018-06-01T08:45:13.419Z,100.37
2018-06-01T08:48:08.254Z,103.75
2018-06-01T08:50:36.547Z,105.57
2018-06-01T08:53:04.110Z,110.40
2018-06-01T08:55:35.402Z,100.95
2018-06-01T08:58:03.060Z,97.20
2018-06-01T09:03:08.396Z,105.30
2018-06-01T10:39:00.111Z,93.00
2018-06-01T10:46:26.946Z,107.20
2018-06-01T10:48:58.495Z,99.90
2018-06-01T11:09:25.137Z,104.77
2018-06-01T11:11:52.682Z,91.77
2018-06-01T11:14:26.116Z,95.40
2018-06-01T11:16:53.727Z,96.70
2018-06-01T11:19:31.808Z,111.83
2018-06-01T11:22:06.830Z,97.45
2018-06-01T11:24:36.098Z,97.27
2018-06-01T11:29:37.770Z,93.60
2018-06-01T11:32:08.545Z,98.40
2018-06-01T11:34:40.726Z,86.67
2018-06-01T11:37:10.225Z,106.80
2018-06-01T11:39:46.040Z,100.15
2018-06-01T11:42:13.605Z,99.40
2018-06-01T11:44:41.170Z,94.60
2018-06-01T11:47:18.104Z,86.37
2018-06-01T11:49:45.677Z,77.40
2018-06-01T11:52:13.826Z,83.70
2018-06-01T11:54:41.442Z,85.90
2018-06-01T11:57:19.335Z,71.80
2018-06-01T11:59:53.126Z,77.87
2018-06-01T12:02:20.707Z,75.65
2018-06-01T12:04:48.318Z,73.93
2018-06-01T12:07:16.678Z,70.90
2018-06-01T12:09:44.880Z,65.47
2018-06-01T12:12:12.497Z,65.67
2018-06-01T12:14:40.073Z,57.60
2018-06-01T12:17:08.661Z,63.50
2018-06-01T12:19:36.215Z,61.00
2018-06-01T12:22:03.753Z,64.00
2018-06-01T12:24:33.402Z,63.40
2018-06-01T12:27:00.949Z,56.65
2018-06-01T12:29:28.558Z,60.60
2018-06-01T12:32:01.852Z,51.30
2018-06-01T12:41:59.153Z,61.30
2018-06-01T12:44:26.732Z,54.03
2018-06-01T12:46:54.533Z,54.20
2018-06-01T12:49:22.134Z,51.63
2018-06-01T12:51:49.793Z,47.40
2018-06-01T12:54:18.114Z,46.00
2018-06-01T12:56:45.992Z,46.50
2018-06-01T12:59:15.122Z,42.10
2018-06-01T13:01:42.669Z,42.67
2018-06-01T13:04:10.206Z,42.00
2018-06-01T13:06:38.749Z,47.70
2018-06-01T13:09:06.287Z,49.77
2018-06-01T13:11:34.599Z,48.90
2018-06-01T13:14:04.897Z,48.77
2018-06-01T13:16:33.186Z,46.70
2018-06-01T13:19:00.729Z,48.40
2018-06-01T13:21:29.470Z,41.35
2018-06-01T13:23:57.063Z,55.60
2018-06-01T13:26:24.594Z,46.80
2018-06-01T13:28:52.231Z,42.60
2018-06-01T13:31:20.559Z,44.40
2018-06-01T13:33:48.100Z,44.30
2018-06-01T13:36:15.651Z,44.45
2018-06-01T13:38:43.227Z,43.63
2018-06-01T13:41:10.768Z,50.40
2018-06-01T13:43:39.097Z,50.35
2018-06-01T13:46:06.648Z,51.00
2018-06-01T13:48:35.000Z,51.07
2018-06-01T13:51:02.732Z,46.10
2018-06-01T13:53:30.306Z,46.70
2018-06-01T13:55:57.852Z,44.63
2018-06-01T13:58:25.445Z,45.23
2018-06-01T14:00:52.992Z,55.53
2018-06-01T14:03:20.536Z,39.65
2018-06-01T14:05:48.168Z,50.33
2018-06-01T14:08:15.725Z,50.83
2018-06-01T14:10:43.947Z,48.20
2018-06-01T14:13:11.514Z,46.93
2018-06-01T14:15:39.069Z,47.33
2018-06-01T14:18:06.613Z,45.45
2018-06-01T14:20:34.205Z,43.53
2018-06-01T14:23:01.799Z,42.30
2018-06-01T14:25:29.323Z,45.20
2018-06-01T14:27:56.920Z,51.27
2018-06-01T14:30:25.375Z,51.93
2018-06-01T14:32:52.912Z,49.90
2018-06-01T14:35:20.501Z,48.25
2018-06-01T14:37:48.808Z,47.00
2018-06-01T14:40:16.400Z,53.30
2018-06-01T14:42:43.981Z,44.70
2018-06-01T14:45:12.396Z,44.87
2018-06-01T14:47:40.699Z,51.30
2018-06-01T14:50:08.259Z,44.33
2018-06-01T14:52:35.805Z,47.35
2018-06-01T14:55:03.532Z,45.75
2018-06-01T14:57:31.860Z,47.13
2018-06-01T14:59:59.409Z,47.80
2018-06-01T15:02:27.936Z,48.23
2018-06-01T15:04:55.669Z,47.30
2018-06-01T15:07:23.660Z,55.57
2018-06-01T15:09:51.610Z,54.07
2018-06-01T15:12:19.926Z,50.80
2018-06-01T15:14:48.655Z,50.90
2018-06-01T15:17:16.342Z,43.00
2018-06-01T15:19:44.238Z,40.40
2018-06-01T15:22:12.084Z,47.30
2018-06-01T15:29:34.790Z,43.90
2018-06-01T15:32:04.516Z,42.50
2018-06-01T15:34:34.286Z,39.10
2018-06-01T15:37:02.080Z,34.20
2018-06-01T15:41:59.919Z,40.70
2018-06-01T15:44:28.716Z,41.40
2018-06-01T15:46:57.238Z,41.00
2018-06-01T15:49:25.821Z,43.60
2018-06-01T15:51:55.156Z,37.63
2018-06-01T15:54:22.783Z,42.45
2018-06-01T15:56:52.915Z,46.40
2018-06-01T15:59:21.565Z,44.95
2018-06-01T16:01:49.555Z,35.05
2018-06-01T16:04:17.544Z,39.85
2018-06-01T16:06:45.250Z,37.45
2018-06-01T16:09:13.083Z,41.50
2018-06-01T16:11:40.957Z,42.75
2018-06-01T16:14:08.763Z,41.45
2018-06-01T16:19:05.125Z,44.25
2018-06-01T16:24:08.472Z,48.45
2018-06-01T16:26:37.056Z,46.90
2018-06-01T16:29:05.728Z,49.67
2018-06-01T16:31:36.462Z,46.07
2018-06-01T16:34:04.998Z,48.10
2018-06-01T16:36:33.525Z,42.70
2018-06-01T16:39:01.603Z,49.40
2018-06-01T16:41:29.310Z,70.30
2018-06-01T16:43:57.058Z,54.30
2018-06-01T16:46:25.049Z,51.75
2018-06-01T16:48:52.808Z,52.20
2018-06-01T16:51:20.606Z,49.80
2018-06-01T16:53:49.394Z,53.80
2018-06-01T16:56:17.181Z,56.70
2018-06-01T16:58:46.454Z,57.80
2018-06-01T17:01:14.637Z,59.45
2018-06-01T17:03:45.191Z,57.50
2018-06-01T17:06:14.555Z,50.70
2018-06-01T17:08:43.624Z,54.50
2018-06-01T17:11:12.497Z,48.10
2018-06-01T17:13:40.344Z,44.17
2018-06-01T17:16:08.754Z,44.00
2018-06-01T17:18:37.593Z,43.80
2018-06-01T17:21:05.756Z,43.85
2018-06-01T17:23:33.483Z,40.75
2018-06-01T17:26:01.597Z,38.30
2018-06-01T17:28:30.397Z,40.43
2018-06-01T17:30:58.808Z,39.20
2018-06-01T17:33:29.941Z,33.17
2018-06-01T17:35:58.377Z,36.20
2018-06-01T17:38:26.394Z,33.03
2018-06-01T17:40:54.115Z,33.57
2018-06-01T17:43:23.642Z,32.07
2018-06-01T17:45:52.258Z,30.30
2018-06-01T17:48:20.831Z,28.63
2018-06-01T17:50:49.709Z,31.53
2018-06-01T17:53:17.674Z,31.00
2018-06-01T17:55:46.287Z,32.93
2018-06-01T17:58:14.301Z,30.50
2018-06-01T18:00:42.094Z,33.00
2018-06-01T18:03:10.614Z,26.15
2018-06-01T18:05:38.326Z,29.15
2018-06-01T18:08:06.082Z,26.40
2018-06-01T18:10:34.608Z,30.47
2018-06-01T18:13:03.262Z,25.95
2018-06-01T18:15:32.080Z,29.20
2018-06-01T18:18:02.285Z,25.60
2018-06-01T18:20:32.287Z,25.07
2018-06-01T18:22:59.986Z,26.80
2018-06-01T18:25:29.245Z,26.13
2018-06-01T18:27:57.312Z,25.40
2018-06-01T18:30:24.934Z,24.70
2018-06-01T18:32:52.787Z,29.60
2018-06-01T18:35:20.943Z,25.90
2018-06-01T18:37:48.767Z,25.80
2018-06-01T18:40:17.621Z,24.30
2018-06-01T18:42:45.403Z,24.00
2018-06-01T18:45:15.984Z,68.70
2018-06-01T18:47:44.832Z,24.85
2018-06-01T18:50:13.426Z,26.20
2018-06-01T18:52:43.832Z,23.60
2018-06-01T19:00:06.251Z,30.20
2018-06-01T19:02:36.666Z,28.05
2018-06-01T19:05:08.683Z,24.90
2018-06-01T19:07:37.127Z,28.60
2018-06-01T19:10:04.862Z,25.40
2018-06-01T19:12:33.446Z,26.30
2018-06-01T19:15:02.816Z,31.65
2018-06-01T19:17:32.526Z,29.80
2018-06-01T19:20:00.987Z,25.80
2018-06-01T19:22:29.001Z,25.60
2018-06-01T19:24:57.018Z,29.70
2018-06-01T19:27:24.735Z,31.20
2018-06-01T19:29:52.480Z,28.17
2018-06-01T19:32:25.703Z,29.10
2018-06-01T19:34:53.518Z,28.70
2018-06-01T19:37:21.197Z,32.20
2018-06-01T19:39:49.462Z,28.00
2018-06-01T19:42:17.326Z,29.75
2018-06-01T19:44:45.931Z,28.20
2018-06-01T19:47:13.803Z,27.90
2018-06-01T19:49:42.589Z,28.80
2018-06-01T19:52:11.189Z,32.15
2018-06-01T19:54:39.144Z,27.80
2018-06-01T19:57:07.008Z,29.70
2018-06-01T19:59:35.662Z,32.30
2018-06-01T20:02:03.687Z,32.10
2018-06-01T20:04:42.547Z,31.65
2018-06-01T20:07:10.432Z,35.10
2018-06-01T20:09:39.607Z,35.00
2018-06-01T20:12:09.316Z,33.20
2018-06-01T20:17:19.235Z,33.55
2018-06-01T20:19:46.916Z,40.20
2018-06-01T20:22:21.890Z,34.95
2018-06-01T20:24:49.837Z,36.20
2018-06-01T20:27:18.011Z,38.40
2018-06-01T20:29:46.673Z,34.35
2018-06-01T20:32:14.678Z,36.50
2018-06-01T20:34:47.934Z,38.95
2018-06-01T20:40:06.170Z,47.40
2018-06-01T20:42:33.928Z,43.93
2018-06-01T20:45:01.543Z,45.05
2018-06-01T20:47:30.019Z,43.80
2018-06-01T20:49:57.682Z,42.15
2018-06-01T20:52:25.399Z,42.50
2018-06-01T20:54:53.833Z,43.60
2018-06-01T20:57:21.711Z,42.20
2018-06-01T20:59:49.516Z,45.20
2018-06-01T21:02:17.413Z,41.30
2018-06-01T21:04:45.150Z,46.60
2018-06-01T21:09:43.007Z,51.80
2018-06-01T21:12:11.453Z,44.50
2018-06-01T21:17:06.643Z,52.20
2018-06-01T21:26:56.622Z,42.85
2018-06-01T21:31:52.747Z,25.60
